Airfield :
LOGIN :

Register | Disclaimer

   EN    FR    IT 

 










Legend :    VFR   Marginal VFR   IFR   Intensive IFR   Very Intensive IFR
Visi :
Ceiling :
>= 8 km
>= 3000ft
5 to 8 km
1000 to 3000 ft
1500m to 5 km
500 to 1000 ft
800 to 1500m
200 to 500 ft
< 800m
< 200 ft
Symbols :   Thunderstorms  Fog  Heavy snow  Heavy precipitations  Wind > 20 kt
SIGMETs :     Misc.  Thunderstorms  Icing  Turbulence  Mountain Waves  Volcanic Ashes







- Airport Elevation : 299 ft
- IATA code : EDM
- Download approach charts


LFRI - La Roche Sur Yon - Les Ajoncs

CURRENT METAR :
  • 191430Z AUTO 25010KT 210V280 9999 SCT033 SCT042 24/15 Q1021 NOSIG

EXPIRED METARs :
  • 191400Z AUTO 25011KT 190V290 9999 SCT029 BKN037 BKN044 23/15 Q1021 NOSIG
  • 191330Z AUTO 24011KT 210V270 9999 FEW028 BKN043 23/15 Q1021 NOSIG
  • 191300Z AUTO 24010KT 190V280 9999 SCT030 BKN036 OVC044 22/15 Q1021 NOSIG
  • 191230Z AUTO 23011KT 190V270 9999 FEW035 OVC042 23/15 Q1021 NOSIG
  • 191200Z AUTO 23012KT 200V270 9999 FEW028 BKN043 22/14 Q1021 NOSIG

TAF TAF LFRI
Valid from the 19 at 12:00 until the 20 at 12:00 UTC


191100Z 1912/2012 25010KT 9999 BKN030
BECMG 1920/1923 VRB03KT
TEMPO 1920/2009 BKN013
PROB40
TEMPO 2003/2008 3000 BR BKN002
PROB30
TEMPO 2003/2008 0400 FG VV///
BECMG 2008/2010 20010KT
No reported NOTAMs for that airfield.



MET'MAP, your aeronautical weather chart ! - Copyright ORBIFLY December 2007 - Disclaimer

ORBIFLY MET'MAP TEAM :

Programming & Development : Alexandra Zaïnal
Concept & Development : Baudouin d'Aumeries
Co-Development & Prog : Marc-Olivier Méhu
Technical & hardware support : Manuel Goepfert

Contact : metmap@orbifly.com




SOURCES & CREDITS :

   NOAA